sensor_id;sensor_type;location;lat;lon;timestamp;pressure;altitude;pressure_sealevel;temperature;humidity
1926;BME280;964;42.606;23.588;2023-06-19T00:01:44;94536.63;;;33.52;32.45
1926;BME280;964;42.606;23.588;2023-06-19T00:04:11;94536.59;;;33.30;32.70
1926;BME280;964;42.606;23.588;2023-06-19T00:06:37;94538.16;;;33.76;32.00
1926;BME280;964;42.606;23.588;2023-06-19T00:09:06;94532.13;;;33.49;32.55
1926;BME280;964;42.606;23.588;2023-06-19T00:11:33;94542.56;;;33.23;32.59
1926;BME280;964;42.606;23.588;2023-06-19T00:14:01;94529.88;;;33.37;32.77
1926;BME280;964;42.606;23.588;2023-06-19T00:16:28;94526.91;;;33.90;31.85
1926;BME280;964;42.606;23.588;2023-06-19T00:18:55;94531.16;;;33.86;31.48
1926;BME280;964;42.606;23.588;2023-06-19T00:21:22;94534.16;;;33.88;31.84
1926;BME280;964;42.606;23.588;2023-06-19T00:23:50;94528.63;;;34.10;31.52
1926;BME280;964;42.606;23.588;2023-06-19T00:26:17;94537.66;;;33.94;31.83
1926;BME280;964;42.606;23.588;2023-06-19T00:28:44;94538.34;;;33.56;32.53
1926;BME280;964;42.606;23.588;2023-06-19T00:31:15;94544.81;;;33.25;33.20
1926;BME280;964;42.606;23.588;2023-06-19T00:33:43;94538.16;;;33.98;32.90
1926;BME280;964;42.606;23.588;2023-06-19T00:36:11;94535.16;;;33.90;33.53
1926;BME280;964;42.606;23.588;2023-06-19T00:38:38;94544.41;;;34.15;33.07
1926;BME280;964;42.606;23.588;2023-06-19T00:41:06;94533.91;;;33.91;33.42
1926;BME280;964;42.606;23.588;2023-06-19T00:43:33;94536.16;;;33.82;33.70
1926;BME280;964;42.606;23.588;2023-06-19T00:46:01;94534.13;;;33.60;33.61
1926;BME280;964;42.606;23.588;2023-06-19T00:48:30;94541.63;;;33.60;33.68
1926;BME280;964;42.606;23.588;2023-06-19T00:50:58;94548.75;;;33.07;34.71
1926;BME280;964;42.606;23.588;2023-06-19T00:53:26;94552.09;;;32.69;35.38
1926;BME280;964;42.606;23.588;2023-06-19T00:55:55;94548.44;;;32.94;35.39
1926;BME280;964;42.606;23.588;2023-06-19T00:58:22;94542.97;;;32.94;35.56
1926;BME280;964;42.606;23.588;2023-06-19T01:00:49;94539.97;;;32.92;35.57
1926;BME280;964;42.606;23.588;2023-06-19T01:03:17;94546.66;;;32.74;35.99
1926;BME280;964;42.606;23.588;2023-06-19T01:05:47;94539.16;;;32.32;36.25
1926;BME280;964;42.606;23.588;2023-06-19T01:08:28;94539.69;;;32.36;36.30
1926;BME280;964;42.606;23.588;2023-06-19T01:11:01;94541.31;;;32.12;36.79
1926;BME280;964;42.606;23.588;2023-06-19T01:13:34;94543.66;;;31.62;37.51
1926;BME280;964;42.606;23.588;2023-06-19T01:16:04;94538.38;;;31.58;37.35
1926;BME280;964;42.606;23.588;2023-06-19T01:18:32;94542.25;;;31.77;36.58
1926;BME280;964;42.606;23.588;2023-06-19T01:21:11;94536.75;;;31.72;36.95
1926;BME280;964;42.606;23.588;2023-06-19T01:23:39;94525.91;;;31.88;36.50
1926;BME280;964;42.606;23.588;2023-06-19T01:26:06;94529.44;;;31.37;37.06
1926;BME280;964;42.606;23.588;2023-06-19T01:28:34;94526.66;;;31.32;36.70
1926;BME280;964;42.606;23.588;2023-06-19T01:31:05;94524.25;;;31.39;36.54
1926;BME280;964;42.606;23.588;2023-06-19T01:33:37;94527.28;;;31.73;36.49
1926;BME280;964;42.606;23.588;2023-06-19T01:36:05;94522.59;;;31.47;36.41
1926;BME280;964;42.606;23.588;2023-06-19T01:38:34;94522.72;;;31.58;36.02
1926;BME280;964;42.606;23.588;2023-06-19T01:41:04;94522.72;;;31.58;35.92
1926;BME280;964;42.606;23.588;2023-06-19T01:43:33;94527.00;;;31.39;36.23
1926;BME280;964;42.606;23.588;2023-06-19T01:46:00;94530.69;;;31.93;34.75
1926;BME280;964;42.606;23.588;2023-06-19T01:48:27;94530.69;;;31.93;35.12
1926;BME280;964;42.606;23.588;2023-06-19T01:50:54;94522.81;;;32.06;34.09
1926;BME280;964;42.606;23.588;2023-06-19T01:53:21;94516.75;;;32.39;33.68
1926;BME280;964;42.606;23.588;2023-06-19T01:55:48;94525.22;;;32.30;33.96
1926;BME280;964;42.606;23.588;2023-06-19T01:58:17;94524.25;;;32.39;33.15
1926;BME280;964;42.606;23.588;2023-06-19T02:00:44;94529.66;;;32.70;33.13
1926;BME280;964;42.606;23.588;2023-06-19T02:03:11;94513.50;;;32.89;32.46
1926;BME280;964;42.606;23.588;2023-06-19T02:05:37;94529.91;;;32.67;32.29
1926;BME280;964;42.606;23.588;2023-06-19T02:08:05;94539.63;;;32.25;33.38
1926;BME280;964;42.606;23.588;2023-06-19T02:10:32;94539.38;;;32.66;32.65
1926;BME280;964;42.606;23.588;2023-06-19T02:12:59;94544.84;;;32.66;32.80
1926;BME280;964;42.606;23.588;2023-06-19T02:15:28;94538.91;;;32.73;32.62
1926;BME280;964;42.606;23.588;2023-06-19T02:17:55;94541.88;;;32.69;32.98
1926;BME280;964;42.606;23.588;2023-06-19T02:20:22;94542.00;;;32.97;32.28
1926;BME280;964;42.606;23.588;2023-06-19T02:22:50;94545.13;;;32.25;33.30
1926;BME280;964;42.606;23.588;2023-06-19T02:25:17;94545.25;;;32.47;33.31
1926;BME280;964;42.606;23.588;2023-06-19T02:27:45;94551.72;;;32.44;33.33
1926;BME280;964;42.606;23.588;2023-06-19T02:30:12;94542.72;;;32.38;33.03
1926;BME280;964;42.606;23.588;2023-06-19T02:32:41;94546.00;;;32.48;33.06
1926;BME280;964;42.606;23.588;2023-06-19T02:35:10;94549.69;;;32.39;33.05
1926;BME280;964;42.606;23.588;2023-06-19T02:37:37;94543.91;;;32.32;33.30
1926;BME280;964;42.606;23.588;2023-06-19T02:40:05;94551.72;;;32.50;32.94
1926;BME280;964;42.606;23.588;2023-06-19T02:42:34;94550.34;;;32.23;32.98
1926;BME280;964;42.606;23.588;2023-06-19T02:45:01;94554.00;;;32.09;33.75
1926;BME280;964;42.606;23.588;2023-06-19T02:47:29;94551.84;;;32.67;32.42
1926;BME280;964;42.606;23.588;2023-06-19T02:49:59;94554.94;;;32.91;32.12
1926;BME280;964;42.606;23.588;2023-06-19T02:52:26;94558.94;;;32.42;33.29
1926;BME280;964;42.606;23.588;2023-06-19T02:54:54;94566.25;;;31.88;33.20
1926;BME280;964;42.606;23.588;2023-06-19T02:57:20;94562.69;;;32.44;33.04
1926;BME280;964;42.606;23.588;2023-06-19T02:59:48;94560.75;;;33.10;32.51
1926;BME280;964;42.606;23.588;2023-06-19T03:02:14;94569.22;;;32.52;33.31
1926;BME280;964;42.606;23.588;2023-06-19T03:04:42;94574.13;;;32.37;33.69
1926;BME280;964;42.606;23.588;2023-06-19T03:07:11;94565.63;;;32.78;33.09
1926;BME280;964;42.606;23.588;2023-06-19T03:09:39;94568.88;;;32.34;33.96
1926;BME280;964;42.606;23.588;2023-06-19T03:12:06;94571.56;;;32.28;34.34
1926;BME280;964;42.606;23.588;2023-06-19T03:14:33;94571.59;;;32.76;33.11
1926;BME280;964;42.606;23.588;2023-06-19T03:17:00;94574.78;;;32.64;33.33
1926;BME280;964;42.606;23.588;2023-06-19T03:19:27;94564.69;;;32.92;32.75
1926;BME280;964;42.606;23.588;2023-06-19T03:21:54;94558.47;;;32.97;32.88
1926;BME280;964;42.606;23.588;2023-06-19T03:24:22;94560.16;;;32.83;33.09
1926;BME280;964;42.606;23.588;2023-06-19T03:26:49;94554.69;;;32.94;32.59
1926;BME280;964;42.606;23.588;2023-06-19T03:29:16;94552.94;;;32.86;33.31
1926;BME280;964;42.606;23.588;2023-06-19T03:31:42;94552.50;;;33.04;32.94
1926;BME280;964;42.606;23.588;2023-06-19T03:34:09;94563.97;;;33.08;32.66
1926;BME280;964;42.606;23.588;2023-06-19T03:36:36;94554.28;;;33.13;32.89
1926;BME280;964;42.606;23.588;2023-06-19T03:39:04;94565.00;;;33.11;32.79
1926;BME280;964;42.606;23.588;2023-06-19T03:41:32;94556.97;;;32.48;33.74
1926;BME280;964;42.606;23.588;2023-06-19T03:43:59;94561.63;;;32.36;33.79
1926;BME280;964;42.606;23.588;2023-06-19T03:46:26;94557.91;;;32.82;33.64
1926;BME280;964;42.606;23.588;2023-06-19T03:48:53;94561.13;;;32.80;33.84
1926;BME280;964;42.606;23.588;2023-06-19T03:51:22;94561.16;;;32.86;33.97
1926;BME280;964;42.606;23.588;2023-06-19T03:53:48;94566.38;;;32.84;34.04
1926;BME280;964;42.606;23.588;2023-06-19T03:56:15;94565.66;;;32.89;34.18
1926;BME280;964;42.606;23.588;2023-06-19T03:58:44;94564.97;;;33.05;34.13
1926;BME280;964;42.606;23.588;2023-06-19T04:01:11;94567.84;;;33.44;33.68
1926;BME280;964;42.606;23.588;2023-06-19T04:03:37;94569.63;;;33.64;33.38
1926;BME280;964;42.606;23.588;2023-06-19T04:06:04;94565.66;;;33.87;33.19
1926;BME280;964;42.606;23.588;2023-06-19T04:08:49;94566.16;;;34.02;32.71
1926;BME280;964;42.606;23.588;2023-06-19T04:11:16;94574.16;;;34.17;32.56
1926;BME280;964;42.606;23.588;2023-06-19T04:13:44;94568.63;;;34.11;32.66
1926;BME280;964;42.606;23.588;2023-06-19T04:16:11;94572.66;;;33.66;33.47
1926;BME280;964;42.606;23.588;2023-06-19T04:18:38;94571.56;;;33.35;34.09
1926;BME280;964;42.606;23.588;2023-06-19T04:21:05;94569.84;;;33.49;33.98
1926;BME280;964;42.606;23.588;2023-06-19T04:23:32;94567.16;;;33.77;33.46
1926;BME280;964;42.606;23.588;2023-06-19T04:25:59;94561.16;;;33.84;32.82
1926;BME280;964;42.606;23.588;2023-06-19T04:28:26;94572.47;;;33.10;34.27
1926;BME280;964;42.606;23.588;2023-06-19T04:30:54;94563.66;;;33.93;33.11
1926;BME280;964;42.606;23.588;2023-06-19T04:33:26;94562.16;;;34.14;32.65
1926;BME280;964;42.606;23.588;2023-06-19T04:35:53;94565.66;;;34.31;32.43
1926;BME280;964;42.606;23.588;2023-06-19T04:38:20;94562.88;;;34.42;32.38
1926;BME280;964;42.606;23.588;2023-06-19T04:40:49;94554.09;;;34.50;32.31
1926;BME280;964;42.606;23.588;2023-06-19T04:46:21;94550.09;;;34.45;31.99
1926;BME280;964;42.606;23.588;2023-06-19T04:48:48;94566.38;;;34.37;32.09
1926;BME280;964;42.606;23.588;2023-06-19T04:51:16;94565.06;;;34.61;32.05
1926;BME280;964;42.606;23.588;2023-06-19T04:53:45;94556.03;;;34.77;31.73
1926;BME280;964;42.606;23.588;2023-06-19T04:56:12;94564.31;;;34.71;32.23
1926;BME280;964;42.606;23.588;2023-06-19T04:58:39;94557.63;;;34.33;32.98
1926;BME280;964;42.606;23.588;2023-06-19T05:01:11;94562.25;;;34.88;31.99
1926;BME280;964;42.606;23.588;2023-06-19T05:03:39;94562.06;;;34.70;32.48
1926;BME280;964;42.606;23.588;2023-06-19T05:06:06;94563.56;;;34.71;32.28
1926;BME280;964;42.606;23.588;2023-06-19T05:08:34;94557.53;;;34.78;32.44
1926;BME280;964;42.606;23.588;2023-06-19T05:11:01;94554.13;;;35.13;31.86
1926;BME280;964;42.606;23.588;2023-06-19T05:13:28;94555.56;;;34.67;33.29
1926;BME280;964;42.606;23.588;2023-06-19T05:15:55;94552.13;;;35.19;32.72
1926;BME280;964;42.606;23.588;2023-06-19T05:18:22;94551.38;;;35.07;32.55
1926;BME280;964;42.606;23.588;2023-06-19T05:20:50;94541.66;;;35.01;32.68
1926;BME280;964;42.606;23.588;2023-06-19T05:23:17;94554.81;;;35.24;32.37
1926;BME280;964;42.606;23.588;2023-06-19T05:25:44;94546.41;;;35.00;32.34
1926;BME280;964;42.606;23.588;2023-06-19T05:28:10;94551.34;;;35.65;31.47
1926;BME280;964;42.606;23.588;2023-06-19T05:30:37;94550.75;;;35.36;31.84
1926;BME280;964;42.606;23.588;2023-06-19T05:33:04;94555.13;;;35.56;32.08
1926;BME280;964;42.606;23.588;2023-06-19T05:35:31;94560.81;;;35.28;31.85
1926;BME280;964;42.606;23.588;2023-06-19T05:37:59;94565.38;;;35.09;31.99
1926;BME280;964;42.606;23.588;2023-06-19T05:40:26;94568.84;;;35.26;30.17
1926;BME280;964;42.606;23.588;2023-06-19T05:42:54;94576.06;;;35.35;31.18
1926;BME280;964;42.606;23.588;2023-06-19T05:45:21;94570.59;;;35.24;30.88
1926;BME280;964;42.606;23.588;2023-06-19T05:47:48;94577.91;;;35.10;31.40
1926;BME280;964;42.606;23.588;2023-06-19T05:50:15;94584.44;;;35.07;31.60
1926;BME280;964;42.606;23.588;2023-06-19T05:52:44;94591.69;;;35.16;30.94
1926;BME280;964;42.606;23.588;2023-06-19T05:55:13;94580.47;;;35.49;31.28
1926;BME280;964;42.606;23.588;2023-06-19T05:57:39;94586.44;;;35.12;30.97
1926;BME280;964;42.606;23.588;2023-06-19T06:00:07;94580.56;;;35.79;30.18
1926;BME280;964;42.606;23.588;2023-06-19T06:02:37;94590.03;;;35.48;30.52
1926;BME280;964;42.606;23.588;2023-06-19T06:05:05;94589.78;;;35.46;30.97
1926;BME280;964;42.606;23.588;2023-06-19T06:07:32;94587.28;;;35.42;30.89
1926;BME280;964;42.606;23.588;2023-06-19T06:09:59;94587.66;;;35.69;29.97
1926;BME280;964;42.606;23.588;2023-06-19T06:12:27;94582.66;;;35.97;30.05
1926;BME280;964;42.606;23.588;2023-06-19T06:14:54;94588.97;;;35.62;30.07
1926;BME280;964;42.606;23.588;2023-06-19T06:17:21;94587.34;;;36.13;29.73
1926;BME280;964;42.606;23.588;2023-06-19T06:19:48;94579.56;;;36.90;29.42
1926;BME280;964;42.606;23.588;2023-06-19T06:22:15;94593.72;;;36.57;29.53
1926;BME280;964;42.606;23.588;2023-06-19T06:24:42;94593.94;;;36.59;29.21
1926;BME280;964;42.606;23.588;2023-06-19T06:27:09;94589.94;;;36.60;29.42
1926;BME280;964;42.606;23.588;2023-06-19T06:29:38;94592.91;;;36.62;29.67
1926;BME280;964;42.606;23.588;2023-06-19T06:32:06;94582.91;;;36.83;29.32
1926;BME280;964;42.606;23.588;2023-06-19T06:34:33;94585.25;;;37.16;29.57
1926;BME280;964;42.606;23.588;2023-06-19T06:37:00;94593.53;;;36.73;29.25
1926;BME280;964;42.606;23.588;2023-06-19T06:39:27;94586.91;;;37.06;29.04
1926;BME280;964;42.606;23.588;2023-06-19T06:41:54;94581.53;;;37.70;28.88
1926;BME280;964;42.606;23.588;2023-06-19T06:44:21;94583.13;;;36.85;29.53
1926;BME280;964;42.606;23.588;2023-06-19T06:46:50;94581.03;;;37.15;29.48
1926;BME280;964;42.606;23.588;2023-06-19T06:49:16;94590.97;;;37.00;29.60
1926;BME280;964;42.606;23.588;2023-06-19T06:51:43;94595.75;;;36.51;30.25
1926;BME280;964;42.606;23.588;2023-06-19T06:54:11;94592.22;;;37.60;28.23
1926;BME280;964;42.606;23.588;2023-06-19T06:56:38;94588.16;;;37.05;29.34
1926;BME280;964;42.606;23.588;2023-06-19T06:59:05;94599.47;;;36.59;28.84
1926;BME280;964;42.606;23.588;2023-06-19T07:01:31;94597.03;;;36.50;29.50
1926;BME280;964;42.606;23.588;2023-06-19T07:03:59;94598.81;;;36.96;29.54
1926;BME280;964;42.606;23.588;2023-06-19T07:06:26;94596.88;;;37.33;29.06
1926;BME280;964;42.606;23.588;2023-06-19T07:08:53;94598.84;;;37.89;28.31
1926;BME280;964;42.606;23.588;2023-06-19T07:11:20;94597.97;;;37.06;29.20
1926;BME280;964;42.606;23.588;2023-06-19T07:13:47;94600.72;;;37.06;28.73
1926;BME280;964;42.606;23.588;2023-06-19T07:16:14;94596.28;;;37.59;27.96
1926;BME280;964;42.606;23.588;2023-06-19T07:18:41;94594.97;;;37.79;27.18
1926;BME280;964;42.606;23.588;2023-06-19T07:21:11;94587.50;;;38.24;28.17
1926;BME280;964;42.606;23.588;2023-06-19T07:23:39;94592.97;;;38.11;28.00
1926;BME280;964;42.606;23.588;2023-06-19T07:26:06;94579.03;;;38.88;26.46
1926;BME280;964;42.606;23.588;2023-06-19T07:28:33;94589.25;;;38.67;27.35
1926;BME280;964;42.606;23.588;2023-06-19T07:31:01;94580.63;;;39.23;26.74
1926;BME280;964;42.606;23.588;2023-06-19T07:33:28;94579.63;;;40.01;25.99
1926;BME280;964;42.606;23.588;2023-06-19T07:35:56;94590.28;;;39.43;26.15
1926;BME280;964;42.606;23.588;2023-06-19T07:38:24;94587.56;;;39.30;26.21
1926;BME280;964;42.606;23.588;2023-06-19T07:40:51;94582.88;;;39.11;26.94
1926;BME280;964;42.606;23.588;2023-06-19T07:43:18;94590.75;;;38.68;27.10
1926;BME280;964;42.606;23.588;2023-06-19T07:45:44;94591.94;;;39.72;25.95
1926;BME280;964;42.606;23.588;2023-06-19T07:48:11;94580.50;;;39.42;26.45
1926;BME280;964;42.606;23.588;2023-06-19T07:50:38;94588.72;;;40.02;24.90
1926;BME280;964;42.606;23.588;2023-06-19T07:53:05;94590.97;;;39.69;25.16
1926;BME280;964;42.606;23.588;2023-06-19T07:55:33;94583.16;;;40.23;25.08
1926;BME280;964;42.606;23.588;2023-06-19T07:58:01;94585.28;;;39.75;24.81
1926;BME280;964;42.606;23.588;2023-06-19T08:00:28;94588.59;;;39.40;25.63
1926;BME280;964;42.606;23.588;2023-06-19T08:02:54;94589.03;;;39.64;25.18
1926;BME280;964;42.606;23.588;2023-06-19T08:05:21;94584.31;;;40.06;25.18
1926;BME280;964;42.606;23.588;2023-06-19T08:07:48;94586.78;;;39.76;25.05
1926;BME280;964;42.606;23.588;2023-06-19T08:10:14;94587.09;;;40.06;25.35
1926;BME280;964;42.606;23.588;2023-06-19T08:12:43;94588.28;;;39.17;25.11
1926;BME280;964;42.606;23.588;2023-06-19T08:15:11;94590.84;;;39.75;24.61
1926;BME280;964;42.606;23.588;2023-06-19T08:17:38;94585.41;;;40.03;23.70
1926;BME280;964;42.606;23.588;2023-06-19T08:20:06;94581.63;;;40.63;24.20
1926;BME280;964;42.606;23.588;2023-06-19T08:22:33;94592.50;;;39.91;24.75
1926;BME280;964;42.606;23.588;2023-06-19T08:25:00;94574.06;;;40.43;24.26
1926;BME280;964;42.606;23.588;2023-06-19T08:27:27;94586.09;;;40.58;24.24
1926;BME280;964;42.606;23.588;2023-06-19T08:29:55;94580.88;;;40.62;24.63
1926;BME280;964;42.606;23.588;2023-06-19T08:32:22;94587.25;;;40.71;23.98
1926;BME280;964;42.606;23.588;2023-06-19T08:34:48;94583.22;;;42.25;23.62
1926;BME280;964;42.606;23.588;2023-06-19T08:37:15;94584.84;;;41.82;23.15
1926;BME280;964;42.606;23.588;2023-06-19T08:39:41;94591.09;;;41.75;22.31
1926;BME280;964;42.606;23.588;2023-06-19T08:42:09;94585.13;;;41.56;24.18
1926;BME280;964;42.606;23.588;2023-06-19T08:44:36;94586.72;;;40.51;23.90
1926;BME280;964;42.606;23.588;2023-06-19T08:47:05;94591.00;;;41.45;22.97
1926;BME280;964;42.606;23.588;2023-06-19T08:49:34;94593.13;;;41.24;23.51
1926;BME280;964;42.606;23.588;2023-06-19T08:52:01;94589.56;;;41.59;23.92
1926;BME280;964;42.606;23.588;2023-06-19T08:54:28;94596.34;;;40.71;22.76
1926;BME280;964;42.606;23.588;2023-06-19T08:56:55;94584.25;;;41.33;22.90
1926;BME280;964;42.606;23.588;2023-06-19T08:59:22;94595.00;;;41.29;24.00
1926;BME280;964;42.606;23.588;2023-06-19T09:01:50;94595.19;;;40.17;23.32
1926;BME280;964;42.606;23.588;2023-06-19T09:04:19;94583.97;;;41.44;22.81
1926;BME280;964;42.606;23.588;2023-06-19T09:06:48;94572.50;;;41.63;22.84
1926;BME280;964;42.606;23.588;2023-06-19T09:09:15;94586.94;;;41.46;22.88
1926;BME280;964;42.606;23.588;2023-06-19T09:11:41;94585.72;;;40.62;23.56
1926;BME280;964;42.606;23.588;2023-06-19T09:14:09;94582.41;;;41.28;22.45
1926;BME280;964;42.606;23.588;2023-06-19T09:16:38;94579.53;;;40.84;23.06
1926;BME280;964;42.606;23.588;2023-06-19T09:19:05;94584.75;;;41.59;22.91
1926;BME280;964;42.606;23.588;2023-06-19T09:21:35;94581.63;;;41.71;22.22
1926;BME280;964;42.606;23.588;2023-06-19T09:24:03;94581.91;;;42.41;21.78
1926;BME280;964;42.606;23.588;2023-06-19T09:26:30;94566.03;;;43.04;20.81
1926;BME280;964;42.606;23.588;2023-06-19T09:28:57;94574.47;;;42.51;22.25
1926;BME280;964;42.606;23.588;2023-06-19T09:31:31;94575.53;;;43.09;22.02
1926;BME280;964;42.606;23.588;2023-06-19T09:33:59;94578.56;;;42.58;21.65
1926;BME280;964;42.606;23.588;2023-06-19T09:36:25;94573.16;;;43.45;20.26
1926;BME280;964;42.606;23.588;2023-06-19T09:38:54;94559.38;;;43.47;20.96
1926;BME280;964;42.606;23.588;2023-06-19T09:41:23;94565.44;;;43.21;21.18
1926;BME280;964;42.606;23.588;2023-06-19T09:43:53;94567.50;;;43.13;21.20
1926;BME280;964;42.606;23.588;2023-06-19T09:46:25;94571.13;;;42.45;22.06
1926;BME280;964;42.606;23.588;2023-06-19T09:48:54;94557.13;;;43.53;20.42
1926;BME280;964;42.606;23.588;2023-06-19T09:51:28;94556.16;;;44.65;20.10
1926;BME280;964;42.606;23.588;2023-06-19T09:53:58;94560.28;;;44.39;19.91
1926;BME280;964;42.606;23.588;2023-06-19T09:56:27;94556.41;;;44.10;20.38
1926;BME280;964;42.606;23.588;2023-06-19T09:58:56;94568.91;;;42.66;21.36
1926;BME280;964;42.606;23.588;2023-06-19T10:01:26;94568.53;;;42.77;21.29
1926;BME280;964;42.606;23.588;2023-06-19T10:04:03;94571.09;;;42.90;20.14
1926;BME280;964;42.606;23.588;2023-06-19T10:06:30;94558.25;;;43.50;21.22
1926;BME280;964;42.606;23.588;2023-06-19T10:09:06;94557.47;;;43.57;19.73
1926;BME280;964;42.606;23.588;2023-06-19T10:11:46;94554.53;;;43.40;20.60
1926;BME280;964;42.606;23.588;2023-06-19T10:14:13;94540.72;;;44.56;19.91
1926;BME280;964;42.606;23.588;2023-06-19T10:16:43;94536.75;;;44.84;19.88
1926;BME280;964;42.606;23.588;2023-06-19T10:19:14;94548.75;;;43.06;20.53
1926;BME280;964;42.606;23.588;2023-06-19T10:21:46;94558.53;;;42.29;21.83
1926;BME280;964;42.606;23.588;2023-06-19T10:24:18;94542.19;;;43.58;19.67
1926;BME280;964;42.606;23.588;2023-06-19T10:26:56;94541.53;;;43.82;19.98
1926;BME280;964;42.606;23.588;2023-06-19T10:29:23;94540.28;;;43.68;20.13
1926;BME280;964;42.606;23.588;2023-06-19T10:31:51;94538.72;;;43.82;20.94
1926;BME280;964;42.606;23.588;2023-06-19T10:34:17;94543.56;;;43.02;21.99
1926;BME280;964;42.606;23.588;2023-06-19T10:36:44;94546.53;;;43.04;20.40
1926;BME280;964;42.606;23.588;2023-06-19T10:39:11;94544.22;;;43.18;20.58
1926;BME280;964;42.606;23.588;2023-06-19T10:41:40;94538.00;;;43.74;19.21
1926;BME280;964;42.606;23.588;2023-06-19T10:44:07;94535.19;;;44.07;19.40
1926;BME280;964;42.606;23.588;2023-06-19T10:46:38;94538.44;;;43.63;20.07
1926;BME280;964;42.606;23.588;2023-06-19T10:49:06;94531.72;;;43.66;20.47
1926;BME280;964;42.606;23.588;2023-06-19T10:51:36;94526.56;;;44.37;18.58
1926;BME280;964;42.606;23.588;2023-06-19T10:54:03;94527.06;;;44.43;17.71
1926;BME280;964;42.606;23.588;2023-06-19T10:56:30;94521.69;;;44.62;18.57
1926;BME280;964;42.606;23.588;2023-06-19T10:58:59;94527.22;;;44.28;19.68
1926;BME280;964;42.606;23.588;2023-06-19T11:01:35;94531.16;;;42.80;20.13
1926;BME280;964;42.606;23.588;2023-06-19T11:04:04;94520.13;;;43.45;18.98
1926;BME280;964;42.606;23.588;2023-06-19T11:06:31;94521.16;;;44.39;18.95
1926;BME280;964;42.606;23.588;2023-06-19T11:08:58;94522.63;;;43.90;19.27
1926;BME280;964;42.606;23.588;2023-06-19T11:11:35;94519.28;;;43.92;19.25
1926;BME280;964;42.606;23.588;2023-06-19T11:14:04;94521.47;;;44.26;19.05
1926;BME280;964;42.606;23.588;2023-06-19T11:16:30;94523.44;;;43.11;19.21
1926;BME280;964;42.606;23.588;2023-06-19T11:18:58;94515.31;;;43.70;18.91
1926;BME280;964;42.606;23.588;2023-06-19T11:21:29;94511.88;;;43.79;18.67
1926;BME280;964;42.606;23.588;2023-06-19T11:23:58;94515.00;;;44.16;19.12
1926;BME280;964;42.606;23.588;2023-06-19T11:26:26;94516.72;;;44.36;19.78
1926;BME280;964;42.606;23.588;2023-06-19T11:28:53;94515.06;;;44.50;18.72
1926;BME280;964;42.606;23.588;2023-06-19T11:31:26;94512.34;;;44.25;20.20
1926;BME280;964;42.606;23.588;2023-06-19T11:33:58;94499.00;;;43.27;20.87
1926;BME280;964;42.606;23.588;2023-06-19T11:36:24;94510.88;;;42.87;21.14
1926;BME280;964;42.606;23.588;2023-06-19T11:38:51;94512.81;;;43.57;20.53
1926;BME280;964;42.606;23.588;2023-06-19T11:41:25;94505.31;;;44.76;19.92
1926;BME280;964;42.606;23.588;2023-06-19T11:43:58;94499.63;;;45.35;19.08
1926;BME280;964;42.606;23.588;2023-06-19T11:46:29;94503.50;;;44.12;19.60
1926;BME280;964;42.606;23.588;2023-06-19T11:49:07;94510.09;;;43.74;20.70
1926;BME280;964;42.606;23.588;2023-06-19T11:51:34;94513.72;;;43.20;21.12
1926;BME280;964;42.606;23.588;2023-06-19T11:54:01;94496.72;;;44.57;19.47
1926;BME280;964;42.606;23.588;2023-06-19T11:56:28;94501.88;;;44.68;19.53
1926;BME280;964;42.606;23.588;2023-06-19T11:58:55;94503.84;;;44.92;20.09
1926;BME280;964;42.606;23.588;2023-06-19T12:01:22;94494.44;;;44.04;19.58
1926;BME280;964;42.606;23.588;2023-06-19T12:03:50;94498.72;;;43.72;19.61
1926;BME280;964;42.606;23.588;2023-06-19T12:06:17;94492.09;;;43.92;19.93
1926;BME280;964;42.606;23.588;2023-06-19T12:08:44;94475.38;;;45.03;18.71
1926;BME280;964;42.606;23.588;2023-06-19T12:11:10;94483.94;;;44.12;19.32
1926;BME280;964;42.606;23.588;2023-06-19T12:13:38;94485.13;;;44.26;19.22
1926;BME280;964;42.606;23.588;2023-06-19T12:16:05;94482.47;;;45.31;19.05
1926;BME280;964;42.606;23.588;2023-06-19T12:18:31;94485.25;;;44.11;20.19
1926;BME280;964;42.606;23.588;2023-06-19T12:20:59;94478.81;;;44.01;20.09
1926;BME280;964;42.606;23.588;2023-06-19T12:23:26;94473.91;;;45.56;18.79
1926;BME280;964;42.606;23.588;2023-06-19T12:25:53;94483.84;;;44.44;20.82
1926;BME280;964;42.606;23.588;2023-06-19T12:28:19;94475.06;;;45.26;20.22
1926;BME280;964;42.606;23.588;2023-06-19T12:30:47;94468.53;;;45.14;19.35
1926;BME280;964;42.606;23.588;2023-06-19T12:33:16;94474.78;;;44.53;20.26
1926;BME280;964;42.606;23.588;2023-06-19T12:35:44;94478.56;;;44.82;19.57
1926;BME280;964;42.606;23.588;2023-06-19T12:38:12;94472.16;;;44.89;20.05
1926;BME280;964;42.606;23.588;2023-06-19T12:40:39;94476.78;;;44.77;20.09
1926;BME280;964;42.606;23.588;2023-06-19T12:43:05;94476.22;;;45.23;20.46
1926;BME280;964;42.606;23.588;2023-06-19T12:45:32;94472.31;;;45.62;19.49
1926;BME280;964;42.606;23.588;2023-06-19T12:47:59;94465.97;;;45.89;18.71
1926;BME280;964;42.606;23.588;2023-06-19T12:50:26;94473.16;;;45.02;19.92
1926;BME280;964;42.606;23.588;2023-06-19T12:52:53;94471.19;;;44.60;20.64
1926;BME280;964;42.606;23.588;2023-06-19T12:55:21;94472.16;;;44.55;20.37
1926;BME280;964;42.606;23.588;2023-06-19T12:57:48;94471.47;;;43.23;21.72
1926;BME280;964;42.606;23.588;2023-06-19T13:00:15;94470.59;;;44.96;21.25
1926;BME280;964;42.606;23.588;2023-06-19T13:02:41;94474.94;;;43.71;20.39
1926;BME280;964;42.606;23.588;2023-06-19T13:05:08;94468.84;;;44.49;20.59
1926;BME280;964;42.606;23.588;2023-06-19T13:07:35;94472.31;;;45.09;19.80
1926;BME280;964;42.606;23.588;2023-06-19T13:10:02;94456.84;;;44.90;19.33
1926;BME280;964;42.606;23.588;2023-06-19T13:12:32;94474.81;;;44.11;20.31
1926;BME280;964;42.606;23.588;2023-06-19T13:14:59;94471.31;;;44.28;20.60
1926;BME280;964;42.606;23.588;2023-06-19T13:17:25;94479.72;;;43.54;20.95
1926;BME280;964;42.606;23.588;2023-06-19T13:19:52;94473.81;;;43.42;21.46
1926;BME280;964;42.606;23.588;2023-06-19T13:22:20;94470.41;;;43.51;20.39
1926;BME280;964;42.606;23.588;2023-06-19T13:24:46;94465.00;;;43.21;20.63
1926;BME280;964;42.606;23.588;2023-06-19T13:27:13;94465.66;;;42.89;21.02
1926;BME280;964;42.606;23.588;2023-06-19T13:29:41;94454.56;;;44.03;21.32